F/V Roger Christian3 — FUFL — position and weather

sailwx.info

Track history (hours):
 
Tides and Currents Weather Stations Pressure Air Temp Water Temp Dewpoint Dewpoint Depression Visibility Wind Speed Wind Dir Waves Ship Positions

F/V Roger Christian3

Last reported at 2014-Oct-30 15:24 UTC. Time now 2014-Oct-30 23:44 UTC.
Position N 43°23' E 003°42'.

Length 24 m; draft 4 m.

Type: Fishing. MMSI: 228173800.

Date/timePositionNaut miles runAvg speedWind from/ knotsBaromVisibWave heightAir tempDewpointWater temp
2014-Oct-30 15:24N 43°23' E 003°42'1111.9
2014-Oct-30 14:29N 43°15' E 003°52'4 3.9
2014-Oct-30 13:23N 43°13' E 003°57'5 4.5
2014-Oct-30 12:21N 43°09' E 004°02'4 4.3
2014-Oct-30 11:22N 43°08' E 004°07'3 3.8
2014-Oct-30 10:32N 43°06' E 004°11'4 4.4
2014-Oct-30 09:32N 43°03' E 004°15'5 4.5
2014-Oct-30 08:25N 42°59' E 004°20'37 2.9
2014-Oct-29 19:28N 43°24' E 003°42'0 0.0
2014-Oct-29 18:07N 43°24' E 003°42'0 0.0
2014-Oct-29 16:14N 43°24' E 003°42'1 0.8
2014-Oct-29 15:30N 43°23' E 003°42'1110.3
2014-Oct-29 14:25N 43°16' E 003°53'3 3.4
2014-Oct-29 13:33N 43°14' E 003°56'4 4.4
2014-Oct-29 12:32N 43°11' E 004°01'6 4.2
2014-Oct-29 11:04N 43°08' E 004°08'4 4.5
2014-Oct-29 10:11N 43°05' E 004°13'3 4.5
2014-Oct-29 09:30N 43°03' E 004°16'5 4.6
2014-Oct-29 08:31N 43°00' E 004°20'3 2.9
2014-Oct-29 07:27N 42°57' E 004°19'8 4.1
2014-Oct-29 05:33N 43°03' E 004°13'30 4.7
2014-Oct-28 23:07N 43°24' E 003°42'0 0.0
2014-Oct-28 21:32N 43°24' E 003°42'0 0.0
2014-Oct-28 20:14N 43°24' E 003°42'0 0.0
2014-Oct-28 18:12N 43°24' E 003°42'0 0.0
2014-Oct-28 17:12N 43°24' E 003°42'0 0.0
2014-Oct-28 16:07N 43°24' E 003°42'0 0.5
2014-Oct-28 15:28N 43°24' E 003°42'5 5.5
2014-Oct-28 14:32N 43°19' E 003°45'7 6.0
2014-Oct-28 13:21N 43°13' E 003°50'5 4.6
2014-Oct-28 12:22N 43°09' E 003°54'3 4.3
2014-Oct-28 11:33N 43°07' E 003°57'3 2.7
2014-Oct-28 10:33N 43°05' E 003°59'5 4.6
2014-Oct-28 09:31N 43°03' E 004°05'8 3.7
2014-Oct-28 07:25N 43°01' E 004°15'34 3.3
2014-Oct-27 21:09N 43°24' E 003°42'0 0.0
2014-Oct-27 18:07N 43°24' E 003°42'0 0.0
2014-Oct-27 16:29N 43°24' E 003°42'3 3.0
2014-Oct-27 15:29N 43°22' E 003°44'8 7.4
2014-Oct-27 14:22N 43°16' E 003°52'4 4.5
2014-Oct-27 13:29N 43°13' E 003°56'4 4.4
2014-Oct-27 12:33N 43°10' E 004°00'5 4.7
2014-Oct-27 11:26N 43°07' E 004°06'3 3.7
2014-Oct-27 10:33N 43°05' E 004°09'5 4.9
2014-Oct-27 09:30N 43°02' E 004°15'4 4.1
2014-Oct-27 08:27N 42°59' E 004°19'2 2.1
2014-Oct-27 07:28N 42°57' E 004°20'39 3.5
2014-Oct-26 20:20N 43°24' E 003°42'0 0.0
2014-Oct-26 18:28N 43°24' E 003°42'0 0.0
2014-Oct-26 17:29N 43°24' E 003°42'0 0.0
2014-Oct-26 16:28N 43°24' E 003°42'0 0.0
2014-Oct-26 15:26N 43°24' E 003°42'0 0.0
2014-Oct-26 14:25N 43°24' E 003°42'0 0.0
2014-Oct-26 13:33N 43°24' E 003°42'0 0.0
2014-Oct-26 11:27N 43°24' E 003°42'0 0.0
2014-Oct-26 09:27N 43°24' E 003°42'0 0.0
2014-Oct-25 18:19N 43°24' E 003°42'0 0.0
2014-Oct-25 17:19N 43°24' E 003°42'0 0.0
2014-Oct-25 16:25N 43°24' E 003°42'0 0.0
2014-Oct-25 14:31N 43°24' E 003°42'0 0.0
2014-Oct-25 12:29N 43°24' E 003°42'0 0.0
2014-Oct-25 11:19N 43°24' E 003°42'0 0.0
2014-Oct-25 10:06N 43°24' E 003°42'0 0.0
2014-Oct-25 09:30N 43°24' E 003°42'0 0.0
2014-Oct-25 07:08N 43°24' E 003°42'0 0.0
2014-Oct-25 06:06N 43°24' E 003°42'0 0.0
2014-Oct-24 21:33N 43°24' E 003°42'0 0.0
2014-Oct-24 17:07N 43°24' E 003°42'0 0.4
2014-Oct-24 16:14N 43°24' E 003°42'1 1.0
2014-Oct-24 15:30N 43°24' E 003°43'1 0.6
2014-Oct-24 14:18N 43°24' E 003°42'9 8.2
2014-Oct-24 13:13N 43°19' E 003°52'2 3.7
2014-Oct-24 12:33N 43°18' E 003°55'6 4.5
2014-Oct-24 11:14N 43°17' E 004°03'4 3.6
2014-Oct-24 10:04N 43°16' E 004°09'2 3.3
2014-Oct-24 09:20N 43°15' E 004°12'4 4.4
2014-Oct-24 08:24N 43°13' E 004°17'23 1.2
2014-Oct-23 13:33N 43°19' E 003°46'6 4.7
2014-Oct-23 12:22N 43°14' E 003°48'3 4.1
2014-Oct-23 11:33N 43°12' E 003°51'5 4.4
2014-Oct-23 10:31N 43°09' E 003°57'4 3.0
2014-Oct-23 09:07N 43°09' E 004°02'4 4.2
2014-Oct-23 08:04N 43°07' E 004°08'3 4.5
2014-Oct-23 07:20N 43°05' E 004°11'29 2.2
2014-Oct-22 18:26N 43°24' E 003°42'0 0.0
2014-Oct-22 15:09N 43°24' E 003°42'7 4.2
2014-Oct-22 13:27N 43°18' E 003°47'2 2.3
2014-Oct-22 12:33N 43°18' E 003°50'6 4.3
2014-Oct-22 11:10N 43°19' E 003°58'3 4.3
2014-Oct-22 10:28N 43°17' E 004°02'2 2.1
2014-Oct-22 09:26N 43°16' E 004°04'5 4.4
2014-Oct-22 08:24N 43°16' E 004°10'4 4.2
2014-Oct-22 07:33N 43°14' E 004°15'3 3.1
2014-Oct-22 06:25N 43°11' E 004°17'5 3.8
2014-Oct-22 05:07N 43°13' E 004°11'24 1.6
2014-Oct-21 14:30N 43°24' E 003°42'9 6.5
2014-Oct-21 13:11N 43°15' E 003°45'4 4.0
2014-Oct-21 12:10N 43°16' E 003°50'8 4.2
2014-Oct-21 10:21N 43°18' E 004°00'2 2.5
2014-Oct-21 09:23N 43°17' E 004°03'12 4.2
2014-Oct-21 06:27N 43°11' E 004°18'29 2.0
2014-Oct-20 15:27N 43°24' E 003°42'  
Track history (hours):
 
Tides and Currents Weather Stations Pressure Air Temp Water Temp Dewpoint Dewpoint Depression Visibility Wind Speed Wind Dir Waves Ship Positions

F/V Roger Christian3

Last reported at 2014-Oct-30 15:24 UTC. Time now 2014-Oct-30 23:44 UTC.
Position N 43°23' E 003°42'.

Length 24 m; draft 4 m.

Type: Fishing. MMSI: 228173800.

Date/timePositionNaut miles runAvg speedWind from/ knotsBaromVisibWave heightAir tempDewpointWater temp
2014-Oct-30 15:24N 43°23' E 003°42'1111.9
2014-Oct-30 14:29N 43°15' E 003°52'4 3.9
2014-Oct-30 13:23N 43°13' E 003°57'5 4.5
2014-Oct-30 12:21N 43°09' E 004°02'4 4.3
2014-Oct-30 11:22N 43°08' E 004°07'3 3.8
2014-Oct-30 10:32N 43°06' E 004°11'4 4.4
2014-Oct-30 09:32N 43°03' E 004°15'5 4.5
2014-Oct-30 08:25N 42°59' E 004°20'37 2.9
2014-Oct-29 19:28N 43°24' E 003°42'0 0.0
2014-Oct-29 18:07N 43°24' E 003°42'0 0.0
2014-Oct-29 16:14N 43°24' E 003°42'1 0.8
2014-Oct-29 15:30N 43°23' E 003°42'1110.3
2014-Oct-29 14:25N 43°16' E 003°53'3 3.4
2014-Oct-29 13:33N 43°14' E 003°56'4 4.4
2014-Oct-29 12:32N 43°11' E 004°01'6 4.2
2014-Oct-29 11:04N 43°08' E 004°08'4 4.5
2014-Oct-29 10:11N 43°05' E 004°13'3 4.5
2014-Oct-29 09:30N 43°03' E 004°16'5 4.6
2014-Oct-29 08:31N 43°00' E 004°20'3 2.9
2014-Oct-29 07:27N 42°57' E 004°19'8 4.1
2014-Oct-29 05:33N 43°03' E 004°13'30 4.7
2014-Oct-28 23:07N 43°24' E 003°42'0 0.0
2014-Oct-28 21:32N 43°24' E 003°42'0 0.0
2014-Oct-28 20:14N 43°24' E 003°42'0 0.0
2014-Oct-28 18:12N 43°24' E 003°42'0 0.0
2014-Oct-28 17:12N 43°24' E 003°42'0 0.0
2014-Oct-28 16:07N 43°24' E 003°42'0 0.5
2014-Oct-28 15:28N 43°24' E 003°42'5 5.5
2014-Oct-28 14:32N 43°19' E 003°45'7 6.0
2014-Oct-28 13:21N 43°13' E 003°50'5 4.6
2014-Oct-28 12:22N 43°09' E 003°54'3 4.3
2014-Oct-28 11:33N 43°07' E 003°57'3 2.7
2014-Oct-28 10:33N 43°05' E 003°59'5 4.6
2014-Oct-28 09:31N 43°03' E 004°05'8 3.7
2014-Oct-28 07:25N 43°01' E 004°15'34 3.3
2014-Oct-27 21:09N 43°24' E 003°42'0 0.0
2014-Oct-27 18:07N 43°24' E 003°42'0 0.0
2014-Oct-27 16:29N 43°24' E 003°42'3 3.0
2014-Oct-27 15:29N 43°22' E 003°44'8 7.4
2014-Oct-27 14:22N 43°16' E 003°52'4 4.5
2014-Oct-27 13:29N 43°13' E 003°56'4 4.4
2014-Oct-27 12:33N 43°10' E 004°00'5 4.7
2014-Oct-27 11:26N 43°07' E 004°06'3 3.7
2014-Oct-27 10:33N 43°05' E 004°09'5 4.9
2014-Oct-27 09:30N 43°02' E 004°15'4 4.1
2014-Oct-27 08:27N 42°59' E 004°19'2 2.1
2014-Oct-27 07:28N 42°57' E 004°20'39 3.5
2014-Oct-26 20:20N 43°24' E 003°42'0 0.0
2014-Oct-26 18:28N 43°24' E 003°42'0 0.0
2014-Oct-26 17:29N 43°24' E 003°42'0 0.0
2014-Oct-26 16:28N 43°24' E 003°42'0 0.0
2014-Oct-26 15:26N 43°24' E 003°42'0 0.0
2014-Oct-26 14:25N 43°24' E 003°42'0 0.0
2014-Oct-26 13:33N 43°24' E 003°42'0 0.0
2014-Oct-26 11:27N 43°24' E 003°42'0 0.0
2014-Oct-26 09:27N 43°24' E 003°42'0 0.0
2014-Oct-25 18:19N 43°24' E 003°42'0 0.0
2014-Oct-25 17:19N 43°24' E 003°42'0 0.0
2014-Oct-25 16:25N 43°24' E 003°42'0 0.0
2014-Oct-25 14:31N 43°24' E 003°42'0 0.0
2014-Oct-25 12:29N 43°24' E 003°42'0 0.0
2014-Oct-25 11:19N 43°24' E 003°42'0 0.0
2014-Oct-25 10:06N 43°24' E 003°42'0 0.0
2014-Oct-25 09:30N 43°24' E 003°42'0 0.0
2014-Oct-25 07:08N 43°24' E 003°42'0 0.0
2014-Oct-25 06:06N 43°24' E 003°42'0 0.0
2014-Oct-24 21:33N 43°24' E 003°42'0 0.0
2014-Oct-24 17:07N 43°24' E 003°42'0 0.4
2014-Oct-24 16:14N 43°24' E 003°42'1 1.0
2014-Oct-24 15:30N 43°24' E 003°43'1 0.6
2014-Oct-24 14:18N 43°24' E 003°42'9 8.2
2014-Oct-24 13:13N 43°19' E 003°52'2 3.7
2014-Oct-24 12:33N 43°18' E 003°55'6 4.5
2014-Oct-24 11:14N 43°17' E 004°03'4 3.6
2014-Oct-24 10:04N 43°16' E 004°09'2 3.3
2014-Oct-24 09:20N 43°15' E 004°12'4 4.4
2014-Oct-24 08:24N 43°13' E 004°17'23 1.2
2014-Oct-23 13:33N 43°19' E 003°46'6 4.7
2014-Oct-23 12:22N 43°14' E 003°48'3 4.1
2014-Oct-23 11:33N 43°12' E 003°51'5 4.4
2014-Oct-23 10:31N 43°09' E 003°57'4 3.0
2014-Oct-23 09:07N 43°09' E 004°02'4 4.2
2014-Oct-23 08:04N 43°07' E 004°08'3 4.5
2014-Oct-23 07:20N 43°05' E 004°11'29 2.2
2014-Oct-22 18:26N 43°24' E 003°42'0 0.0
2014-Oct-22 15:09N 43°24' E 003°42'7 4.2
2014-Oct-22 13:27N 43°18' E 003°47'2 2.3
2014-Oct-22 12:33N 43°18' E 003°50'6 4.3
2014-Oct-22 11:10N 43°19' E 003°58'3 4.3
2014-Oct-22 10:28N 43°17' E 004°02'2 2.1
2014-Oct-22 09:26N 43°16' E 004°04'5 4.4
2014-Oct-22 08:24N 43°16' E 004°10'4 4.2
2014-Oct-22 07:33N 43°14' E 004°15'3 3.1
2014-Oct-22 06:25N 43°11' E 004°17'5 3.8
2014-Oct-22 05:07N 43°13' E 004°11'24 1.6
2014-Oct-21 14:30N 43°24' E 003°42'9 6.5
2014-Oct-21 13:11N 43°15' E 003°45'4 4.0
2014-Oct-21 12:10N 43°16' E 003°50'8 4.2
2014-Oct-21 10:21N 43°18' E 004°00'2 2.5
2014-Oct-21 09:23N 43°17' E 004°03'12 4.2
2014-Oct-21 06:27N 43°11' E 004°18'29 2.0
2014-Oct-20 15:27N 43°24' E 003°42'  

Dump ship's entire track history